sensor_id;sensor_type;location;lat;lon;timestamp;pressure;altitude;pressure_sealevel;temperature;humidity
27984;BME280;15317;50.360;8.726;2023-07-16T00:01:16;99252.69;;;19.28;100.00
27984;BME280;15317;50.360;8.726;2023-07-16T00:06:19;99275.94;;;19.32;100.00
27984;BME280;15317;50.360;8.726;2023-07-16T00:11:24;99269.63;;;19.25;100.00
27984;BME280;15317;50.360;8.726;2023-07-16T00:16:28;99274.34;;;19.18;100.00
27984;BME280;15317;50.360;8.726;2023-07-16T00:21:31;99203.84;;;19.17;100.00
27984;BME280;15317;50.360;8.726;2023-07-16T00:26:36;99232.03;;;19.13;100.00
27984;BME280;15317;50.360;8.726;2023-07-16T00:31:39;99207.91;;;19.08;100.00
27984;BME280;15317;50.360;8.726;2023-07-16T00:36:43;99271.91;;;19.04;100.00
27984;BME280;15317;50.360;8.726;2023-07-16T00:41:47;99267.88;;;19.00;100.00
27984;BME280;15317;50.360;8.726;2023-07-16T00:46:51;99245.72;;;18.88;100.00
27984;BME280;15317;50.360;8.726;2023-07-16T00:51:55;99247.00;;;18.85;100.00
27984;BME280;15317;50.360;8.726;2023-07-16T00:56:59;99252.50;;;18.85;100.00
27984;BME280;15317;50.360;8.726;2023-07-16T01:02:03;99250.41;;;18.81;100.00
27984;BME280;15317;50.360;8.726;2023-07-16T01:07:08;99247.06;;;18.66;100.00
27984;BME280;15317;50.360;8.726;2023-07-16T01:12:15;99222.34;;;18.59;100.00
27984;BME280;15317;50.360;8.726;2023-07-16T01:17:19;99150.72;;;18.34;100.00
27984;BME280;15317;50.360;8.726;2023-07-16T01:22:29;99197.25;;;18.29;100.00
27984;BME280;15317;50.360;8.726;2023-07-16T01:28:04;99187.38;;;18.15;100.00
27984;BME280;15317;50.360;8.726;2023-07-16T01:33:11;99224.59;;;17.98;100.00
27984;BME280;15317;50.360;8.726;2023-07-16T01:38:16;99244.50;;;17.93;100.00
27984;BME280;15317;50.360;8.726;2023-07-16T01:43:20;99248.72;;;17.83;100.00
27984;BME280;15317;50.360;8.726;2023-07-16T01:48:29;99247.25;;;17.67;100.00
27984;BME280;15317;50.360;8.726;2023-07-16T01:53:32;99243.41;;;17.55;100.00
27984;BME280;15317;50.360;8.726;2023-07-16T01:58:36;99260.72;;;17.42;100.00
27984;BME280;15317;50.360;8.726;2023-07-16T02:03:40;99268.53;;;17.32;100.00
27984;BME280;15317;50.360;8.726;2023-07-16T02:08:44;99261.31;;;17.24;100.00
27984;BME280;15317;50.360;8.726;2023-07-16T02:13:47;99267.84;;;17.17;100.00
27984;BME280;15317;50.360;8.726;2023-07-16T02:18:51;99269.94;;;17.15;100.00
27984;BME280;15317;50.360;8.726;2023-07-16T02:23:54;99267.81;;;17.04;100.00
27984;BME280;15317;50.360;8.726;2023-07-16T02:28:58;99275.19;;;16.96;100.00
27984;BME280;15317;50.360;8.726;2023-07-16T02:34:03;99285.50;;;16.94;100.00
27984;BME280;15317;50.360;8.726;2023-07-16T02:39:06;99296.88;;;16.85;100.00
27984;BME280;15317;50.360;8.726;2023-07-16T02:44:09;99315.81;;;16.80;100.00
27984;BME280;15317;50.360;8.726;2023-07-16T02:49:14;99313.03;;;16.67;100.00
27984;BME280;15317;50.360;8.726;2023-07-16T02:54:17;99335.94;;;16.59;100.00
27984;BME280;15317;50.360;8.726;2023-07-16T02:59:20;99334.66;;;16.55;100.00
27984;BME280;15317;50.360;8.726;2023-07-16T03:04:24;99346.22;;;16.44;100.00
27984;BME280;15317;50.360;8.726;2023-07-16T03:09:27;99339.97;;;16.29;100.00
27984;BME280;15317;50.360;8.726;2023-07-16T03:14:31;99353.63;;;16.22;100.00
27984;BME280;15317;50.360;8.726;2023-07-16T03:19:35;99371.44;;;16.11;100.00
27984;BME280;15317;50.360;8.726;2023-07-16T03:24:38;99377.09;;;16.03;100.00
27984;BME280;15317;50.360;8.726;2023-07-16T03:29:42;99388.25;;;16.02;100.00
27984;BME280;15317;50.360;8.726;2023-07-16T03:34:46;99393.72;;;16.02;100.00
27984;BME280;15317;50.360;8.726;2023-07-16T03:39:50;99403.03;;;16.07;100.00
27984;BME280;15317;50.360;8.726;2023-07-16T03:44:53;99404.31;;;16.11;100.00
27984;BME280;15317;50.360;8.726;2023-07-16T03:49:58;99426.25;;;16.11;100.00
27984;BME280;15317;50.360;8.726;2023-07-16T03:55:01;99428.34;;;16.09;100.00
27984;BME280;15317;50.360;8.726;2023-07-16T04:00:06;99431.72;;;16.11;100.00
27984;BME280;15317;50.360;8.726;2023-07-16T04:05:12;99440.59;;;16.13;100.00
27984;BME280;15317;50.360;8.726;2023-07-16T04:10:15;99453.28;;;16.14;100.00
27984;BME280;15317;50.360;8.726;2023-07-16T04:15:19;99458.22;;;16.26;100.00
27984;BME280;15317;50.360;8.726;2023-07-16T04:20:23;99471.19;;;16.38;100.00
27984;BME280;15317;50.360;8.726;2023-07-16T04:25:26;99467.44;;;16.46;100.00
27984;BME280;15317;50.360;8.726;2023-07-16T04:30:30;99474.31;;;16.56;100.00
27984;BME280;15317;50.360;8.726;2023-07-16T04:35:34;99472.28;;;16.65;100.00
27984;BME280;15317;50.360;8.726;2023-07-16T04:40:37;99471.56;;;16.78;100.00
27984;BME280;15317;50.360;8.726;2023-07-16T04:45:40;99485.94;;;16.86;100.00
27984;BME280;15317;50.360;8.726;2023-07-16T04:50:45;99489.19;;;16.96;100.00
27984;BME280;15317;50.360;8.726;2023-07-16T04:55:48;99483.56;;;17.05;100.00
27984;BME280;15317;50.360;8.726;2023-07-16T05:00:52;99484.81;;;17.09;100.00
27984;BME280;15317;50.360;8.726;2023-07-16T05:05:56;99473.22;;;17.13;100.00
27984;BME280;15317;50.360;8.726;2023-07-16T05:11:01;99465.03;;;17.20;100.00
27984;BME280;15317;50.360;8.726;2023-07-16T05:16:04;99475.22;;;17.26;100.00
27984;BME280;15317;50.360;8.726;2023-07-16T05:21:09;99464.28;;;17.32;100.00
27984;BME280;15317;50.360;8.726;2023-07-16T05:26:12;99475.28;;;17.39;100.00
27984;BME280;15317;50.360;8.726;2023-07-16T05:31:16;99448.72;;;17.46;100.00
27984;BME280;15317;50.360;8.726;2023-07-16T05:36:20;99460.31;;;17.48;100.00
27984;BME280;15317;50.360;8.726;2023-07-16T05:41:23;99471.56;;;17.53;100.00
27984;BME280;15317;50.360;8.726;2023-07-16T05:46:27;99469.88;;;17.59;100.00
27984;BME280;15317;50.360;8.726;2023-07-16T05:51:31;99469.75;;;17.67;100.00
27984;BME280;15317;50.360;8.726;2023-07-16T05:56:35;99467.44;;;17.77;100.00
27984;BME280;15317;50.360;8.726;2023-07-16T06:01:38;99476.34;;;17.86;100.00
27984;BME280;15317;50.360;8.726;2023-07-16T06:06:42;99469.56;;;17.88;100.00
27984;BME280;15317;50.360;8.726;2023-07-16T06:11:46;99474.69;;;17.98;100.00
27984;BME280;15317;50.360;8.726;2023-07-16T06:16:49;99467.50;;;18.10;100.00
27984;BME280;15317;50.360;8.726;2023-07-16T06:21:54;99458.22;;;18.24;100.00
27984;BME280;15317;50.360;8.726;2023-07-16T06:26:57;99456.97;;;18.46;100.00
27984;BME280;15317;50.360;8.726;2023-07-16T06:32:00;99453.72;;;19.28;100.00
27984;BME280;15317;50.360;8.726;2023-07-16T06:37:06;99452.19;;;20.22;99.15
27984;BME280;15317;50.360;8.726;2023-07-16T06:42:09;99447.81;;;20.88;83.25
27984;BME280;15317;50.360;8.726;2023-07-16T06:47:12;99451.28;;;21.27;75.08
27984;BME280;15317;50.360;8.726;2023-07-16T06:52:21;99451.13;;;21.40;71.65
27984;BME280;15317;50.360;8.726;2023-07-16T06:57:24;99464.13;;;21.88;69.70
27984;BME280;15317;50.360;8.726;2023-07-16T07:02:27;99457.59;;;22.30;65.88
27984;BME280;15317;50.360;8.726;2023-07-16T07:07:32;99470.69;;;22.23;62.28
27984;BME280;15317;50.360;8.726;2023-07-16T07:12:35;99472.94;;;22.68;63.71
27984;BME280;15317;50.360;8.726;2023-07-16T07:17:39;99466.22;;;22.87;59.25
27984;BME280;15317;50.360;8.726;2023-07-16T07:22:45;99467.91;;;23.23;58.33
27984;BME280;15317;50.360;8.726;2023-07-16T07:27:49;99482.47;;;22.72;57.79
27984;BME280;15317;50.360;8.726;2023-07-16T07:32:52;99480.59;;;22.42;59.66
27984;BME280;15317;50.360;8.726;2023-07-16T07:37:56;99477.94;;;23.12;56.91
27984;BME280;15317;50.360;8.726;2023-07-16T07:42:59;99482.13;;;23.38;54.82
27984;BME280;15317;50.360;8.726;2023-07-16T07:48:03;99500.84;;;24.23;53.99
27984;BME280;15317;50.360;8.726;2023-07-16T07:53:08;99491.72;;;24.11;55.38
27984;BME280;15317;50.360;8.726;2023-07-16T07:58:12;99498.53;;;24.31;50.15
27984;BME280;15317;50.360;8.726;2023-07-16T08:03:15;99489.38;;;23.91;49.42
27984;BME280;15317;50.360;8.726;2023-07-16T08:08:20;99493.69;;;23.98;49.98
27984;BME280;15317;50.360;8.726;2023-07-16T08:13:23;99511.47;;;23.86;49.98
27984;BME280;15317;50.360;8.726;2023-07-16T08:18:26;99500.38;;;23.86;47.62
27984;BME280;15317;50.360;8.726;2023-07-16T08:23:31;99511.47;;;24.26;48.21
27984;BME280;15317;50.360;8.726;2023-07-16T08:28:34;99511.84;;;24.46;46.20
27984;BME280;15317;50.360;8.726;2023-07-16T08:33:37;99512.63;;;23.50;50.10
27984;BME280;15317;50.360;8.726;2023-07-16T08:38:41;99502.25;;;23.10;51.02
27984;BME280;15317;50.360;8.726;2023-07-16T08:43:46;99501.75;;;23.37;50.24
27984;BME280;15317;50.360;8.726;2023-07-16T08:48:50;99508.09;;;23.84;51.35
27984;BME280;15317;50.360;8.726;2023-07-16T08:53:55;99508.53;;;25.28;49.51
27984;BME280;15317;50.360;8.726;2023-07-16T08:58:58;99508.94;;;26.18;43.91
27984;BME280;15317;50.360;8.726;2023-07-16T09:04:02;99514.34;;;26.52;43.96
27984;BME280;15317;50.360;8.726;2023-07-16T09:09:06;99522.75;;;26.08;43.90
27984;BME280;15317;50.360;8.726;2023-07-16T09:14:10;99524.31;;;25.77;43.07
27984;BME280;15317;50.360;8.726;2023-07-16T09:19:13;99532.63;;;26.96;44.01
27984;BME280;15317;50.360;8.726;2023-07-16T09:24:19;99533.72;;;27.27;40.54
27984;BME280;15317;50.360;8.726;2023-07-16T09:29:25;99533.69;;;26.63;41.78
27984;BME280;15317;50.360;8.726;2023-07-16T09:34:29;99528.44;;;26.18;41.69
27984;BME280;15317;50.360;8.726;2023-07-16T09:39:34;99520.22;;;26.55;42.79
27984;BME280;15317;50.360;8.726;2023-07-16T09:44:38;99529.94;;;26.04;42.87
27984;BME280;15317;50.360;8.726;2023-07-16T09:49:43;99518.72;;;26.43;41.78
27984;BME280;15317;50.360;8.726;2023-07-16T09:54:50;99518.47;;;26.01;41.25
27984;BME280;15317;50.360;8.726;2023-07-16T09:59:55;99524.66;;;26.51;40.85
27984;BME280;15317;50.360;8.726;2023-07-16T10:04:59;99517.31;;;26.40;39.43
27984;BME280;15317;50.360;8.726;2023-07-16T10:10:08;99528.03;;;26.85;41.35
27984;BME280;15317;50.360;8.726;2023-07-16T10:15:11;99530.38;;;26.93;40.55
27984;BME280;15317;50.360;8.726;2023-07-16T10:20:15;99529.13;;;27.48;39.89
27984;BME280;15317;50.360;8.726;2023-07-16T10:25:25;99523.66;;;26.89;42.95
27984;BME280;15317;50.360;8.726;2023-07-16T10:30:30;99506.69;;;25.33;41.39
27984;BME280;15317;50.360;8.726;2023-07-16T10:35:34;99521.41;;;25.50;43.31
27984;BME280;15317;50.360;8.726;2023-07-16T10:40:41;99524.44;;;26.58;39.93
27984;BME280;15317;50.360;8.726;2023-07-16T10:45:44;99519.59;;;27.02;41.40
27984;BME280;15317;50.360;8.726;2023-07-16T10:50:53;99511.47;;;27.84;37.64
27984;BME280;15317;50.360;8.726;2023-07-16T10:55:58;99514.66;;;28.03;37.57
27984;BME280;15317;50.360;8.726;2023-07-16T11:01:02;99509.13;;;27.56;38.66
27984;BME280;15317;50.360;8.726;2023-07-16T11:06:06;99510.22;;;26.54;40.33
27984;BME280;15317;50.360;8.726;2023-07-16T11:11:10;99511.78;;;26.23;40.24
27984;BME280;15317;50.360;8.726;2023-07-16T11:16:15;99516.94;;;25.49;40.03
27984;BME280;15317;50.360;8.726;2023-07-16T11:21:19;99521.22;;;25.02;39.90
27984;BME280;15317;50.360;8.726;2023-07-16T11:26:24;99497.59;;;24.88;41.54
27984;BME280;15317;50.360;8.726;2023-07-16T11:31:27;99509.91;;;24.92;41.08
27984;BME280;15317;50.360;8.726;2023-07-16T11:36:30;99495.47;;;25.45;42.10
27984;BME280;15317;50.360;8.726;2023-07-16T11:41:35;99505.03;;;25.71;39.59
27984;BME280;15317;50.360;8.726;2023-07-16T11:46:38;99504.19;;;25.92;39.15
27984;BME280;15317;50.360;8.726;2023-07-16T11:51:42;99506.50;;;26.49;37.52
27984;BME280;15317;50.360;8.726;2023-07-16T11:56:46;99494.75;;;27.00;37.52
27984;BME280;15317;50.360;8.726;2023-07-16T12:01:50;99497.28;;;26.21;37.27
27984;BME280;15317;50.360;8.726;2023-07-16T12:06:54;99492.25;;;26.18;38.39
27984;BME280;15317;50.360;8.726;2023-07-16T12:11:59;99497.66;;;26.52;37.92
27984;BME280;15317;50.360;8.726;2023-07-16T12:17:03;99487.19;;;26.15;38.17
27984;BME280;15317;50.360;8.726;2023-07-16T12:22:07;99501.81;;;27.08;37.29
27984;BME280;15317;50.360;8.726;2023-07-16T12:27:13;99489.75;;;27.02;35.71
27984;BME280;15317;50.360;8.726;2023-07-16T12:32:17;99493.00;;;26.35;38.32
27984;BME280;15317;50.360;8.726;2023-07-16T12:37:22;99476.13;;;25.55;36.65
27984;BME280;15317;50.360;8.726;2023-07-16T12:42:26;99495.00;;;25.31;36.58
27984;BME280;15317;50.360;8.726;2023-07-16T12:47:29;99491.13;;;25.71;36.97
27984;BME280;15317;50.360;8.726;2023-07-16T12:52:32;99495.84;;;26.94;34.66
27984;BME280;15317;50.360;8.726;2023-07-16T12:57:37;99484.16;;;26.39;37.00
27984;BME280;15317;50.360;8.726;2023-07-16T13:02:40;99493.97;;;27.47;34.33
27984;BME280;15317;50.360;8.726;2023-07-16T13:07:43;99490.72;;;26.86;35.36
27984;BME280;15317;50.360;8.726;2023-07-16T13:12:48;99493.59;;;26.96;35.83
27984;BME280;15317;50.360;8.726;2023-07-16T13:17:51;99485.66;;;27.57;34.76
27984;BME280;15317;50.360;8.726;2023-07-16T13:22:54;99489.25;;;26.47;36.15
27984;BME280;15317;50.360;8.726;2023-07-16T13:27:59;99489.50;;;26.45;35.61
27984;BME280;15317;50.360;8.726;2023-07-16T13:33:02;99483.63;;;27.00;37.55
27984;BME280;15317;50.360;8.726;2023-07-16T13:38:05;99489.34;;;28.30;33.08
27984;BME280;15317;50.360;8.726;2023-07-16T13:43:10;99483.53;;;28.52;31.56
27984;BME280;15317;50.360;8.726;2023-07-16T13:48:13;99497.25;;;28.68;31.98
27984;BME280;15317;50.360;8.726;2023-07-16T13:53:17;99495.59;;;29.13;32.82
27984;BME280;15317;50.360;8.726;2023-07-16T13:58:22;99492.25;;;28.96;31.22
27984;BME280;15317;50.360;8.726;2023-07-16T14:03:26;99488.81;;;28.48;32.31
27984;BME280;15317;50.360;8.726;2023-07-16T14:08:29;99487.44;;;27.73;32.52
27984;BME280;15317;50.360;8.726;2023-07-16T14:13:37;99481.56;;;27.28;33.57
27984;BME280;15317;50.360;8.726;2023-07-16T14:18:40;99482.97;;;27.77;32.73
27984;BME280;15317;50.360;8.726;2023-07-16T14:23:44;99485.25;;;27.80;32.85
27984;BME280;15317;50.360;8.726;2023-07-16T14:28:48;99491.91;;;27.69;32.85
27984;BME280;15317;50.360;8.726;2023-07-16T14:33:52;99484.31;;;27.65;34.10
27984;BME280;15317;50.360;8.726;2023-07-16T14:38:55;99483.47;;;27.59;36.32
27984;BME280;15317;50.360;8.726;2023-07-16T14:43:59;99481.75;;;27.53;32.78
27984;BME280;15317;50.360;8.726;2023-07-16T14:49:03;99474.50;;;27.57;34.68
27984;BME280;15317;50.360;8.726;2023-07-16T14:54:06;99472.47;;;27.42;35.16
27984;BME280;15317;50.360;8.726;2023-07-16T14:59:11;99471.81;;;27.30;35.37
27984;BME280;15317;50.360;8.726;2023-07-16T15:04:14;99484.78;;;27.09;33.59
27984;BME280;15317;50.360;8.726;2023-07-16T15:09:17;99481.13;;;27.04;35.22
27984;BME280;15317;50.360;8.726;2023-07-16T15:14:21;99472.94;;;26.60;34.78
27984;BME280;15317;50.360;8.726;2023-07-16T15:19:25;99460.06;;;26.54;35.82
27984;BME280;15317;50.360;8.726;2023-07-16T15:24:28;99461.66;;;26.77;35.72
27984;BME280;15317;50.360;8.726;2023-07-16T15:29:33;99467.84;;;26.84;37.92
27984;BME280;15317;50.360;8.726;2023-07-16T15:34:36;99465.63;;;26.86;34.95
27984;BME280;15317;50.360;8.726;2023-07-16T15:39:39;99475.50;;;26.67;35.18
27984;BME280;15317;50.360;8.726;2023-07-16T15:44:44;99464.72;;;26.49;34.36
27984;BME280;15317;50.360;8.726;2023-07-16T15:49:47;99464.50;;;26.02;36.05
27984;BME280;15317;50.360;8.726;2023-07-16T15:54:50;99463.38;;;26.24;39.04
27984;BME280;15317;50.360;8.726;2023-07-16T15:59:56;99463.09;;;25.99;37.19
27984;BME280;15317;50.360;8.726;2023-07-16T16:05:01;99464.59;;;25.85;37.42
27984;BME280;15317;50.360;8.726;2023-07-16T16:10:08;99461.28;;;26.37;35.79
27984;BME280;15317;50.360;8.726;2023-07-16T16:15:13;99457.59;;;26.31;36.20
27984;BME280;15317;50.360;8.726;2023-07-16T16:20:16;99459.22;;;25.40;38.87
27984;BME280;15317;50.360;8.726;2023-07-16T16:25:19;99461.66;;;26.23;36.46
27984;BME280;15317;50.360;8.726;2023-07-16T16:30:24;99459.13;;;25.73;37.13
27984;BME280;15317;50.360;8.726;2023-07-16T16:35:28;99448.41;;;26.89;36.15
27984;BME280;15317;50.360;8.726;2023-07-16T16:40:32;99452.75;;;28.16;33.34
27984;BME280;15317;50.360;8.726;2023-07-16T16:45:36;99453.31;;;28.28;34.39
27984;BME280;15317;50.360;8.726;2023-07-16T16:50:43;99446.66;;;29.00;33.65
27984;BME280;15317;50.360;8.726;2023-07-16T16:55:46;99448.59;;;29.15;31.20
27984;BME280;15317;50.360;8.726;2023-07-16T17:00:52;99467.59;;;28.62;32.11
27984;BME280;15317;50.360;8.726;2023-07-16T17:05:57;99459.50;;;28.61;31.90
27984;BME280;15317;50.360;8.726;2023-07-16T17:11:02;99461.56;;;26.99;34.65
27984;BME280;15317;50.360;8.726;2023-07-16T17:16:06;99456.38;;;26.49;35.07
27984;BME280;15317;50.360;8.726;2023-07-16T17:21:09;99452.41;;;25.91;37.65
27984;BME280;15317;50.360;8.726;2023-07-16T17:26:12;99449.38;;;25.71;37.19
27984;BME280;15317;50.360;8.726;2023-07-16T17:31:17;99444.03;;;25.47;38.50
27984;BME280;15317;50.360;8.726;2023-07-16T17:36:21;99447.41;;;24.77;41.28
27984;BME280;15317;50.360;8.726;2023-07-16T17:41:25;99457.59;;;24.89;38.55
27984;BME280;15317;50.360;8.726;2023-07-16T17:46:29;99462.44;;;24.31;40.70
27984;BME280;15317;50.360;8.726;2023-07-16T17:51:32;99463.25;;;24.15;40.33
27984;BME280;15317;50.360;8.726;2023-07-16T17:56:35;99463.56;;;23.90;40.88
27984;BME280;15317;50.360;8.726;2023-07-16T18:01:40;99454.09;;;23.75;41.84
27984;BME280;15317;50.360;8.726;2023-07-16T18:06:43;99460.75;;;23.62;41.25
27984;BME280;15317;50.360;8.726;2023-07-16T18:11:47;99465.13;;;23.35;43.02
27984;BME280;15317;50.360;8.726;2023-07-16T18:16:52;99468.66;;;23.18;42.30
27984;BME280;15317;50.360;8.726;2023-07-16T18:21:56;99462.03;;;22.96;44.10
27984;BME280;15317;50.360;8.726;2023-07-16T18:27:11;99459.69;;;22.70;45.44
27984;BME280;15317;50.360;8.726;2023-07-16T18:32:16;99462.91;;;22.43;48.76
27984;BME280;15317;50.360;8.726;2023-07-16T18:37:20;99470.31;;;22.31;45.54
27984;BME280;15317;50.360;8.726;2023-07-16T18:42:24;99472.78;;;22.10;48.71
27984;BME280;15317;50.360;8.726;2023-07-16T18:47:32;99479.41;;;21.90;47.72
27984;BME280;15317;50.360;8.726;2023-07-16T18:52:35;99476.56;;;21.79;47.39
27984;BME280;15317;50.360;8.726;2023-07-16T18:57:38;99480.91;;;21.75;48.30
27984;BME280;15317;50.360;8.726;2023-07-16T19:02:45;99472.16;;;21.59;51.28
27984;BME280;15317;50.360;8.726;2023-07-16T19:07:49;99480.38;;;21.48;51.01
27984;BME280;15317;50.360;8.726;2023-07-16T19:12:52;99485.66;;;21.31;51.17
27984;BME280;15317;50.360;8.726;2023-07-16T19:17:57;99479.84;;;21.21;49.15
27984;BME280;15317;50.360;8.726;2023-07-16T19:23:01;99491.94;;;20.95;53.26
27984;BME280;15317;50.360;8.726;2023-07-16T19:28:04;99495.50;;;20.77;51.57
27984;BME280;15317;50.360;8.726;2023-07-16T19:33:09;99489.66;;;20.67;51.67
27984;BME280;15317;50.360;8.726;2023-07-16T19:38:12;99499.72;;;20.55;52.26
27984;BME280;15317;50.360;8.726;2023-07-16T19:43:16;99510.69;;;20.37;55.72
27984;BME280;15317;50.360;8.726;2023-07-16T19:48:20;99495.66;;;20.26;52.34
27984;BME280;15317;50.360;8.726;2023-07-16T19:53:24;99509.50;;;20.13;52.71
27984;BME280;15317;50.360;8.726;2023-07-16T19:58:27;99509.22;;;19.90;54.78
27984;BME280;15317;50.360;8.726;2023-07-16T20:03:32;99511.41;;;19.75;53.32
27984;BME280;15317;50.360;8.726;2023-07-16T20:08:35;99520.31;;;19.77;53.19
27984;BME280;15317;50.360;8.726;2023-07-16T20:13:38;99533.47;;;19.68;53.48
27984;BME280;15317;50.360;8.726;2023-07-16T20:18:44;99532.66;;;19.61;53.00
27984;BME280;15317;50.360;8.726;2023-07-16T20:23:47;99536.31;;;19.48;54.85
27984;BME280;15317;50.360;8.726;2023-07-16T20:28:51;99532.72;;;19.34;54.44
27984;BME280;15317;50.360;8.726;2023-07-16T20:33:55;99526.78;;;19.38;54.51
27984;BME280;15317;50.360;8.726;2023-07-16T20:38:58;99533.56;;;19.35;54.09
27984;BME280;15317;50.360;8.726;2023-07-16T20:44:01;99527.41;;;19.33;54.11
27984;BME280;15317;50.360;8.726;2023-07-16T20:49:06;99535.69;;;19.26;56.23
27984;BME280;15317;50.360;8.726;2023-07-16T20:54:10;99533.75;;;19.33;52.85
27984;BME280;15317;50.360;8.726;2023-07-16T20:59:13;99537.56;;;19.32;54.11
27984;BME280;15317;50.360;8.726;2023-07-16T21:04:17;99528.88;;;19.49;50.33
27984;BME280;15317;50.360;8.726;2023-07-16T21:09:20;99532.03;;;19.46;53.33
27984;BME280;15317;50.360;8.726;2023-07-16T21:14:24;99527.63;;;19.25;54.11
27984;BME280;15317;50.360;8.726;2023-07-16T21:19:28;99533.59;;;19.22;50.60
27984;BME280;15317;50.360;8.726;2023-07-16T21:24:31;99536.34;;;19.15;52.05
27984;BME280;15317;50.360;8.726;2023-07-16T21:29:34;99537.00;;;18.91;55.57
27984;BME280;15317;50.360;8.726;2023-07-16T21:34:39;99531.50;;;18.65;55.82
27984;BME280;15317;50.360;8.726;2023-07-16T21:39:43;99545.84;;;18.53;56.44
27984;BME280;15317;50.360;8.726;2023-07-16T21:44:46;99545.25;;;18.65;52.80
27984;BME280;15317;50.360;8.726;2023-07-16T21:49:50;99546.31;;;18.77;53.15
27984;BME280;15317;50.360;8.726;2023-07-16T21:54:54;99543.13;;;18.80;52.72
27984;BME280;15317;50.360;8.726;2023-07-16T21:59:57;99553.94;;;18.75;53.91
27984;BME280;15317;50.360;8.726;2023-07-16T22:05:02;99553.94;;;18.75;52.42
27984;BME280;15317;50.360;8.726;2023-07-16T22:10:06;99564.09;;;18.68;55.60
27984;BME280;15317;50.360;8.726;2023-07-16T22:15:10;99557.25;;;18.50;56.44
27984;BME280;15317;50.360;8.726;2023-07-16T22:20:15;99551.13;;;18.35;56.01
27984;BME280;15317;50.360;8.726;2023-07-16T22:25:19;99556.63;;;18.35;57.47
27984;BME280;15317;50.360;8.726;2023-07-16T22:30:23;99561.66;;;18.25;58.26
27984;BME280;15317;50.360;8.726;2023-07-16T22:35:27;99558.88;;;18.19;58.22
27984;BME280;15317;50.360;8.726;2023-07-16T22:40:30;99550.66;;;18.25;57.07
27984;BME280;15317;50.360;8.726;2023-07-16T22:45:33;99554.69;;;18.42;55.66
27984;BME280;15317;50.360;8.726;2023-07-16T22:50:42;99557.25;;;18.50;56.12
27984;BME280;15317;50.360;8.726;2023-07-16T22:55:45;99565.56;;;18.70;55.19
27984;BME280;15317;50.360;8.726;2023-07-16T23:00:48;99562.00;;;18.83;54.45
27984;BME280;15317;50.360;8.726;2023-07-16T23:05:53;99564.09;;;18.94;55.15
27984;BME280;15317;50.360;8.726;2023-07-16T23:10:57;99559.84;;;18.98;56.24
27984;BME280;15317;50.360;8.726;2023-07-16T23:16:02;99559.44;;;19.01;55.81
27984;BME280;15317;50.360;8.726;2023-07-16T23:21:07;99559.84;;;19.05;55.93
27984;BME280;15317;50.360;8.726;2023-07-16T23:26:10;99563.69;;;19.04;56.79
27984;BME280;15317;50.360;8.726;2023-07-16T23:31:14;99564.94;;;18.94;59.95
27984;BME280;15317;50.360;8.726;2023-07-16T23:36:19;99561.56;;;18.73;60.59
27984;BME280;15317;50.360;8.726;2023-07-16T23:41:23;99564.94;;;18.62;59.99
27984;BME280;15317;50.360;8.726;2023-07-16T23:46:26;99562.75;;;18.50;66.43
27984;BME280;15317;50.360;8.726;2023-07-16T23:51:31;99558.50;;;18.28;67.06
27984;BME280;15317;50.360;8.726;2023-07-16T23:56:34;99556.50;;;18.09;66.13
